Winchester, ID

6:11 AM PDT on September 22, 2014 (GMT -0700)
Highland Schools | Change Station
CLOSE
Current Station
Personal Weather Station
Location: Craigmont, ID
Elevation: 3783 ft
Nearby Weather Stations
Active Advisory: Air Quality Alert

Elev 3783 ft 46.24 °N, 116.47 °W | Updated 3 seconds ago

Partly Cloudy
Partly Cloudy
67.5 °F
Feels Like 67.5 °F
N
11.5
Wind Variable Wind from WSW
Gusts 11.5 mph

Today
High -- | Low -- °F
--% Chance of Precip.
Yesterday
High -- | Low -- °F
Precip. -- in
6:33 AM 6:43 PM
Waning Crescent, 3% visible
Pressure 30.01 in
Visibility 10.0 miles
Clouds Scattered Clouds 11000 ft
Dew Point 45 °F
Humidity 44%
Rainfall 0.00 in
Snow Depth 0 in , 0 in , 0 in
UV 0 out of 12
Pollen 7.50 out of 12
PM2.5 Moderate
Flu Activity Not available.
METAR KGIC 221255Z AUTO 00000KT 10SM SCT110 17/06 A3001 RMK AO1 T01720057

More Conditions Fewer Conditions

Pressure 30.01 in
Visibility 10.0 miles
Clouds Scattered Clouds 11000 ft
Dew Point 45 °F
Humidity 44%
Rainfall 0.00 in
Snow Depth 0 in , 0 in , 0 in
UV 0 out of 12
Pollen 7.50 out of 12
PM2.5 Moderate
Flu Activity Not available.
METAR KGIC 221255Z AUTO 00000KT 10SM SCT110 17/06 A3001 RMK AO1 T01720057

More Conditions Fewer Conditions

10-Day Weather Forecast

Almanac

Astronomy

Sep. 22, 2014 Rise Set
Actual Time 6:33 AM PDT 6:43 PM PDT
Civil Twilight 6:03 AM PDT 7:13 PM PDT
Nautical Twilight 5:28 AM PDT 7:48 PM PDT
Astronomical Twilight 4:51 AM PDT 8:25 PM PDT
Moon 5:02 AM PDT 5:55 PM PDT
Length of Visible Light 13h 10m
Length of Day
12h 10m
Tomorrow will be 3m 16s shorter.
Waning Crescent, 3% of the Moon is Illuminated
Today
Waning Crescent
Sep 24
New
Oct 1
First Quarter
Oct 8
Full
Oct 15
Last Quarter

Today's Extremes

State Highs State Lows

Community

WunderPhotos

Upload Photos

1,755,429 photos uploaded!

Nearby

Air Quality

  Air Quality AQ Index Pollutant
Yesterday Moderate
PM2.5
Current Moderate
PM2.5
Monday Moderate
PM2.5

Snow Depth

Station Depth Elevation
Banner Summit 0 in 7040 ft
Savage Pass 1 in 6170 ft
Schwartz Lake 0 in 8620 ft
Atlanta Summit 0 in 7580 ft
Deadwood Summit 0 in 6860 ft

Earthquake Activity

City Distance Mag. Time & Date
No recent earthquake activity has been reported nearby.
Minimum magnitude displayed is 2.5.

Coastal Water Temperatures

Place Temperature
No Stations Reporting

Nearby Weather Stations